createdAt,value
2022-08-02T00:00:56.288Z,93.97
2022-08-02T00:01:58.065Z,94.19
2022-08-02T00:02:59.762Z,93.79
2022-08-02T00:04:01.466Z,93.80
2022-08-02T00:05:03.368Z,94.19
2022-08-02T00:06:05.227Z,94.92
2022-08-02T00:07:06.828Z,94.91
2022-08-02T00:08:08.440Z,94.61
2022-08-02T00:09:10.035Z,95.30
2022-08-02T00:10:12.835Z,95.54
2022-08-02T00:11:14.457Z,95.33
2022-08-02T00:12:16.202Z,95.28
2022-08-02T00:13:17.831Z,95.23
2022-08-02T00:14:19.445Z,95.13
2022-08-02T00:15:20.980Z,95.56
2022-08-02T00:16:22.588Z,94.45
2022-08-02T00:17:39.399Z,94.25
2022-08-02T00:18:41.394Z,94.51
2022-08-02T00:19:43.113Z,94.24
2022-08-02T00:20:44.723Z,94.28
2022-08-02T00:21:46.398Z,94.81
2022-08-02T00:22:48.022Z,94.96
2022-08-02T00:24:27.576Z,95.36
2022-08-02T00:25:11.283Z,95.40
2022-08-02T00:26:12.829Z,95.09
2022-08-02T00:27:14.400Z,95.08
2022-08-02T00:28:16.661Z,95.70
2022-08-02T00:29:22.308Z,95.66
2022-08-02T00:30:23.922Z,95.17
2022-08-02T00:31:25.498Z,96.07
2022-08-02T00:32:27.273Z,95.11
2022-08-02T00:34:26.992Z,95.47
2022-08-02T00:34:50.939Z,95.69
2022-08-02T00:35:52.790Z,95.24
2022-08-02T00:36:54.452Z,94.89
2022-08-02T00:37:56.077Z,94.20
2022-08-02T00:38:57.731Z,94.40
2022-08-02T00:39:59.394Z,94.61
2022-08-02T00:41:01.026Z,94.40
2022-08-02T00:42:03.617Z,93.88
2022-08-02T00:43:08.196Z,94.08
2022-08-02T00:44:09.780Z,94.21
2022-08-02T00:45:14.324Z,94.70
2022-08-02T00:46:17.334Z,94.75
2022-08-02T00:47:19.705Z,94.39
2022-08-02T00:48:21.557Z,95.06
2022-08-02T00:49:23.261Z,95.05
2022-08-02T00:50:26.634Z,95.51
2022-08-02T00:51:28.207Z,94.41
2022-08-02T00:52:29.960Z,94.20
2022-08-02T00:53:32.406Z,94.26
2022-08-02T00:54:34.155Z,94.27
2022-08-02T00:55:37.352Z,94.84
2022-08-02T00:56:39.014Z,94.73
2022-08-02T00:57:51.014Z,94.00
2022-08-02T00:58:52.745Z,94.31
2022-08-02T00:59:54.281Z,93.69
2022-08-02T01:01:00.943Z,93.57
2022-08-02T01:02:02.733Z,94.96
2022-08-02T01:03:04.342Z,94.58
2022-08-02T01:04:13.506Z,94.51
2022-08-02T01:05:17.733Z,93.87
2022-08-02T01:06:21.116Z,93.31
2022-08-02T01:07:22.835Z,93.21
2022-08-02T01:08:29.582Z,93.41
2022-08-02T01:09:33.650Z,93.31
2022-08-02T01:10:35.309Z,93.31
2022-08-02T01:11:37.055Z,93.49
2022-08-02T01:12:39.248Z,93.39
2022-08-02T01:13:40.987Z,92.84
2022-08-02T01:14:46.042Z,93.44
2022-08-02T01:15:55.317Z,93.34
2022-08-02T01:17:02.905Z,93.65
2022-08-02T01:18:15.465Z,93.83
2022-08-02T01:19:35.288Z,94.42
2022-08-02T01:20:52.110Z,93.87
2022-08-02T01:22:03.779Z,94.10
2022-08-02T01:23:33.094Z,94.22
2022-08-02T01:25:16.575Z,93.72
2022-08-02T01:26:48.910Z,92.89
2022-08-02T01:28:27.927Z,93.24
2022-08-02T01:29:34.703Z,93.50
2022-08-02T01:30:40.770Z,92.58
2022-08-02T01:31:54.498Z,92.24
2022-08-02T01:33:00.385Z,92.29
2022-08-02T01:34:29.366Z,92.10
2022-08-02T01:35:50.627Z,92.27
2022-08-02T01:37:07.378Z,91.93
2022-08-02T01:38:18.080Z,92.15
2022-08-02T01:39:32.144Z,92.27
2022-08-02T01:40:37.327Z,91.46
2022-08-02T01:41:40.228Z,91.61
2022-08-02T01:42:47.228Z,91.80
2022-08-02T01:43:55.444Z,91.33
2022-08-02T01:44:59.307Z,91.83
2022-08-02T01:46:02.824Z,91.78
2022-08-02T01:47:17.813Z,91.41
2022-08-02T01:48:20.403Z,92.42
2022-08-02T01:49:23.638Z,91.58
2022-08-02T01:50:32.603Z,91.84
2022-08-02T01:51:55.279Z,92.67
2022-08-02T01:53:00.135Z,91.73
2022-08-02T01:54:02.879Z,91.80
2022-08-02T01:55:10.033Z,92.31
2022-08-02T01:56:21.833Z,92.84
2022-08-02T01:57:26.238Z,92.14
2022-08-02T01:58:32.125Z,92.24
2022-08-02T01:59:35.386Z,92.75
2022-08-02T02:00:40.117Z,94.20
2022-08-02T02:01:43.305Z,93.48
2022-08-02T02:02:48.068Z,93.20
2022-08-02T02:03:50.347Z,93.32
2022-08-02T02:04:52.968Z,94.11
2022-08-02T02:05:57.450Z,93.49
2022-08-02T02:07:00.596Z,93.70
2022-08-02T02:08:04.470Z,94.11
2022-08-02T02:09:06.571Z,93.51
2022-08-02T02:10:09.823Z,93.78
2022-08-02T02:12:09.790Z,93.22
2022-08-02T02:12:36.538Z,92.97
2022-08-02T02:13:42.463Z,92.98
2022-08-02T02:14:51.984Z,92.53
2022-08-02T02:15:56.174Z,92.52
2022-08-02T02:17:00.215Z,92.68
2022-08-02T02:18:12.299Z,92.75
2022-08-02T02:19:21.014Z,92.29
2022-08-02T02:20:23.457Z,92.47
2022-08-02T02:21:25.050Z,92.06
2022-08-02T02:22:26.665Z,92.43
2022-08-02T02:23:30.168Z,91.78
2022-08-02T02:24:37.356Z,92.05
2022-08-02T02:25:46.890Z,92.06
2022-08-02T02:26:52.280Z,91.74
2022-08-02T02:28:14.035Z,91.73
2022-08-02T02:29:18.225Z,91.63
2022-08-02T02:30:20.154Z,91.39
2022-08-02T02:31:21.844Z,91.22
2022-08-02T02:32:27.556Z,91.42
2022-08-02T02:33:31.914Z,91.64
2022-08-02T02:34:38.095Z,91.86
2022-08-02T02:35:41.596Z,92.89
2022-08-02T02:36:49.715Z,92.71
2022-08-02T02:37:54.861Z,93.00
2022-08-02T02:39:03.168Z,93.12
2022-08-02T02:40:05.813Z,93.14
2022-08-02T02:41:07.969Z,93.12
2022-08-02T02:42:14.201Z,93.17
2022-08-02T02:43:17.369Z,93.43
2022-08-02T02:44:20.869Z,92.86
2022-08-02T02:45:24.085Z,93.01
2022-08-02T02:46:29.947Z,93.21
2022-08-02T02:47:40.246Z,93.16
2022-08-02T02:48:43.919Z,93.87
2022-08-02T02:49:50.158Z,93.82
2022-08-02T02:50:52.798Z,94.16
2022-08-02T02:51:55.836Z,94.71
2022-08-02T02:52:58.351Z,94.89
2022-08-02T02:54:30.940Z,95.01
2022-08-02T02:55:23.706Z,95.14
2022-08-02T02:56:25.891Z,95.67
2022-08-02T02:57:27.915Z,95.42
2022-08-02T02:58:31.311Z,96.34
2022-08-02T02:59:34.919Z,95.52
2022-08-02T03:00:55.311Z,95.62
2022-08-02T03:01:58.916Z,95.57
2022-08-02T03:03:00.730Z,95.68
2022-08-02T03:04:07.418Z,95.86
2022-08-02T03:05:11.115Z,95.76
2022-08-02T03:06:15.666Z,96.02
2022-08-02T03:07:18.034Z,96.03
2022-08-02T03:08:19.713Z,96.01
2022-08-02T03:09:21.442Z,96.11
2022-08-02T03:10:23.045Z,96.31
2022-08-02T03:11:25.197Z,96.90
2022-08-02T03:12:31.890Z,97.58
2022-08-02T03:13:36.370Z,97.50
2022-08-02T03:14:43.867Z,98.08
2022-08-02T03:15:47.829Z,99.05
2022-08-02T03:16:54.054Z,98.93
2022-08-02T03:17:55.749Z,98.93
2022-08-02T03:18:58.185Z,99.27
2022-08-02T03:19:59.772Z,99.40
2022-08-02T03:21:07.234Z,99.79
2022-08-02T03:22:09.097Z,100.00
2022-08-02T03:23:10.782Z,100.00
2022-08-02T03:24:13.274Z,100.00
2022-08-02T03:25:15.612Z,100.00
2022-08-02T03:26:17.276Z,100.00
2022-08-02T03:27:18.838Z,100.00
2022-08-02T03:28:20.558Z,100.00
2022-08-02T03:29:22.200Z,100.00
2022-08-02T03:30:26.880Z,100.00
2022-08-02T03:31:28.687Z,100.00
2022-08-02T03:32:38.059Z,100.00
2022-08-02T03:33:40.340Z,100.00
2022-08-02T03:34:41.980Z,100.00
2022-08-02T03:35:45.633Z,100.00
2022-08-02T03:36:50.457Z,100.00
2022-08-02T03:37:55.880Z,100.00
2022-08-02T03:38:58.607Z,100.00
2022-08-02T03:40:01.370Z,100.00
2022-08-02T03:41:04.078Z,100.00
2022-08-02T03:42:06.132Z,100.00
2022-08-02T03:43:09.339Z,100.00
2022-08-02T03:44:12.548Z,100.00
2022-08-02T03:45:14.735Z,100.00
2022-08-02T03:46:19.528Z,100.00
2022-08-02T03:47:22.587Z,100.00
2022-08-02T03:48:34.105Z,100.00
2022-08-02T03:49:37.076Z,100.00
2022-08-02T03:50:39.906Z,100.00
2022-08-02T03:51:41.646Z,100.00
2022-08-02T03:52:44.883Z,100.00
2022-08-02T03:53:48.318Z,100.00
2022-08-02T03:54:50.240Z,100.00
2022-08-02T03:55:55.772Z,100.00
2022-08-02T03:56:57.681Z,100.00
2022-08-02T03:57:59.436Z,100.00
2022-08-02T03:59:13.907Z,100.00
2022-08-02T04:00:19.884Z,100.00
2022-08-02T04:01:21.547Z,100.00
2022-08-02T04:02:23.153Z,100.00
2022-08-02T04:03:25.855Z,100.00
2022-08-02T04:04:27.410Z,100.00
2022-08-02T04:05:29.071Z,100.00
2022-08-02T04:06:30.725Z,100.00
2022-08-02T04:08:32.737Z,100.00
2022-08-02T04:08:54.526Z,100.00
2022-08-02T04:09:56.097Z,100.00
2022-08-02T04:11:16.219Z,100.00
2022-08-02T04:12:17.793Z,100.00
2022-08-02T04:13:31.269Z,100.00
2022-08-02T04:14:36.090Z,100.00
2022-08-02T04:15:39.094Z,100.00
2022-08-02T04:16:44.821Z,100.00
2022-08-02T04:17:52.798Z,100.00
2022-08-02T04:18:56.908Z,100.00
2022-08-02T04:20:06.990Z,100.00
2022-08-02T04:21:13.688Z,100.00
2022-08-02T04:22:44.628Z,100.00
2022-08-02T04:23:48.853Z,100.00
2022-08-02T04:24:54.576Z,100.00
2022-08-02T04:25:57.741Z,100.00
2022-08-02T04:27:06.703Z,100.00
2022-08-02T04:28:27.730Z,100.00
2022-08-02T04:29:33.009Z,100.00
2022-08-02T04:30:35.116Z,100.00
2022-08-02T04:31:37.551Z,100.00
2022-08-02T04:32:40.031Z,100.00
2022-08-02T04:33:42.598Z,100.00
2022-08-02T04:35:05.056Z,100.00
2022-08-02T04:36:07.920Z,100.00
2022-08-02T04:37:12.729Z,100.00
2022-08-02T04:38:15.849Z,100.00
2022-08-02T04:39:19.193Z,100.00
2022-08-02T04:40:20.758Z,100.00
2022-08-02T04:41:22.520Z,100.00
2022-08-02T04:42:25.736Z,100.00
2022-08-02T04:43:28.592Z,100.00
2022-08-02T04:44:30.178Z,100.00
2022-08-02T04:45:32.535Z,99.02
2022-08-02T04:46:36.264Z,98.45
2022-08-02T04:48:03.435Z,98.19
2022-08-02T04:48:59.450Z,97.75
2022-08-02T04:50:01.128Z,97.27
2022-08-02T04:51:02.668Z,96.75
2022-08-02T04:52:04.457Z,97.09
2022-08-02T04:53:06.050Z,97.14
2022-08-02T04:54:10.243Z,97.13
2022-08-02T04:55:12.012Z,97.47
2022-08-02T04:56:16.720Z,97.16
2022-08-02T04:57:36.716Z,96.95
2022-08-02T04:58:40.405Z,95.66
2022-08-02T04:59:42.345Z,95.51
2022-08-02T05:00:44.474Z,96.01
2022-08-02T05:01:46.365Z,95.15
2022-08-02T05:02:48.558Z,94.89
2022-08-02T05:03:50.172Z,95.00
2022-08-02T05:04:51.828Z,94.16
2022-08-02T05:05:53.442Z,93.42
2022-08-02T05:06:55.025Z,92.68
2022-08-02T05:07:56.626Z,92.40
2022-08-02T05:08:58.534Z,91.88
2022-08-02T05:10:00.394Z,91.41
2022-08-02T05:11:04.040Z,91.05
2022-08-02T05:12:06.438Z,89.82
2022-08-02T05:13:08.025Z,89.43
2022-08-02T05:14:09.645Z,89.37
2022-08-02T05:15:18.274Z,89.16
2022-08-02T05:16:20.031Z,89.74
2022-08-02T05:17:32.850Z,88.46
2022-08-02T05:18:34.650Z,87.20
2022-08-02T05:19:36.857Z,87.20
2022-08-02T05:20:38.397Z,86.68
2022-08-02T05:21:39.962Z,86.45
2022-08-02T05:22:42.141Z,85.83
2022-08-02T05:23:43.871Z,86.13
2022-08-02T05:24:45.457Z,85.80
2022-08-02T05:25:47.141Z,85.90
2022-08-02T05:26:48.792Z,85.88
2022-08-02T05:27:50.320Z,85.25
2022-08-02T05:28:51.893Z,85.31
2022-08-02T05:29:57.100Z,85.56
2022-08-02T05:30:58.828Z,84.06
2022-08-02T05:32:00.439Z,84.30
2022-08-02T05:33:02.017Z,82.41
2022-08-02T05:34:04.557Z,83.08
2022-08-02T05:35:08.288Z,83.94
2022-08-02T05:36:09.948Z,83.07
2022-08-02T05:37:11.558Z,82.28
2022-08-02T05:38:15.107Z,82.63
2022-08-02T05:39:19.038Z,81.80
2022-08-02T05:40:25.469Z,82.13
2022-08-02T05:41:27.717Z,81.17
2022-08-02T05:42:32.304Z,80.87
2022-08-02T05:43:34.055Z,80.59
2022-08-02T05:44:35.626Z,79.32
2022-08-02T05:45:37.490Z,79.39
2022-08-02T05:46:39.028Z,79.39
2022-08-02T05:47:40.810Z,78.04
2022-08-02T05:48:42.403Z,78.05
2022-08-02T05:49:44.034Z,79.56
2022-08-02T05:50:49.974Z,78.31
2022-08-02T05:52:19.790Z,77.74
2022-08-02T05:53:51.061Z,78.18
2022-08-02T05:54:55.626Z,79.06
2022-08-02T05:56:37.701Z,79.32
2022-08-02T05:57:56.115Z,78.20
2022-08-02T05:59:09.756Z,77.33
2022-08-02T06:00:14.197Z,77.90
2022-08-02T06:01:25.191Z,77.82
2022-08-02T06:02:39.131Z,77.15
2022-08-02T06:03:51.514Z,76.03
2022-08-02T06:05:04.805Z,76.43
2022-08-02T06:06:11.238Z,76.45
2022-08-02T06:07:14.552Z,75.87
2022-08-02T06:08:16.211Z,75.63
2022-08-02T06:09:23.228Z,75.84
2022-08-02T06:10:30.080Z,75.03
2022-08-02T06:11:42.931Z,75.75
2022-08-02T06:13:04.478Z,74.59
2022-08-02T06:14:07.233Z,75.08
2022-08-02T06:15:09.222Z,74.87
2022-08-02T06:16:14.146Z,75.05
2022-08-02T06:17:17.171Z,74.59
2022-08-02T06:18:20.218Z,74.88
2022-08-02T06:19:31.622Z,74.49
2022-08-02T06:20:50.550Z,73.54
2022-08-02T06:22:34.022Z,73.42
2022-08-02T06:23:14.542Z,72.78
2022-08-02T06:24:19.726Z,72.43
2022-08-02T06:25:50.261Z,72.03
2022-08-02T06:26:44.629Z,71.76
2022-08-02T06:27:48.975Z,72.18
2022-08-02T06:28:53.288Z,71.95
2022-08-02T06:29:55.279Z,72.07
2022-08-02T06:30:57.606Z,70.30
2022-08-02T06:31:59.698Z,69.83
2022-08-02T06:33:01.878Z,69.48
2022-08-02T06:34:03.413Z,68.77
2022-08-02T06:35:05.829Z,68.79
2022-08-02T06:36:19.629Z,69.41
2022-08-02T06:37:41.415Z,69.54
2022-08-02T06:39:14.490Z,69.38
2022-08-02T06:40:44.114Z,70.35
2022-08-02T06:41:49.286Z,70.02
2022-08-02T06:43:10.816Z,70.71
2022-08-02T06:44:45.859Z,70.29
2022-08-02T06:45:35.232Z,70.42
2022-08-02T06:47:11.002Z,68.95
2022-08-02T06:47:59.005Z,68.44
2022-08-02T06:49:01.818Z,68.38
2022-08-02T06:50:04.269Z,67.67
2022-08-02T06:51:06.093Z,68.06
2022-08-02T06:52:07.820Z,67.57
2022-08-02T06:53:10.451Z,66.43
2022-08-02T06:54:12.061Z,66.46
2022-08-02T06:55:13.668Z,66.40
2022-08-02T06:56:15.745Z,66.61
2022-08-02T06:57:17.383Z,65.81
2022-08-02T06:58:19.050Z,65.89
2022-08-02T06:59:20.551Z,65.27
2022-08-02T07:00:22.136Z,64.86
2022-08-02T07:01:23.917Z,64.67
2022-08-02T07:02:25.629Z,64.24
2022-08-02T07:03:27.399Z,63.60
2022-08-02T07:04:29.567Z,63.58
2022-08-02T07:05:31.216Z,62.63
2022-08-02T07:06:32.812Z,60.64
2022-08-02T07:07:34.882Z,60.42
2022-08-02T07:08:38.514Z,60.74
2022-08-02T07:09:40.361Z,59.35
2022-08-02T07:11:02.615Z,58.91
2022-08-02T07:12:04.622Z,59.52
2022-08-02T07:13:06.174Z,56.72
2022-08-02T07:14:07.719Z,57.98
2022-08-02T07:15:10.235Z,58.01
2022-08-02T07:16:11.837Z,56.89
2022-08-02T07:17:13.750Z,55.40
2022-08-02T07:18:15.826Z,55.25
2022-08-02T07:19:17.478Z,55.30
2022-08-02T07:20:19.175Z,54.78
2022-08-02T07:21:55.990Z,53.95
2022-08-02T07:22:42.404Z,53.51
2022-08-02T07:23:43.981Z,51.92
2022-08-02T07:24:45.781Z,50.12
2022-08-02T07:26:02.290Z,48.90
2022-08-02T07:27:11.686Z,48.29
2022-08-02T07:28:22.274Z,47.73
2022-08-02T07:29:26.634Z,45.67
2022-08-02T07:30:34.393Z,44.58
2022-08-02T07:31:36.136Z,43.92
2022-08-02T07:32:38.306Z,43.97
2022-08-02T07:33:42.351Z,42.76
2022-08-02T07:34:50.899Z,42.51
2022-08-02T07:35:57.338Z,42.63
2022-08-02T07:36:59.001Z,43.39
2022-08-02T07:38:02.848Z,42.62
2022-08-02T07:39:06.175Z,40.79
2022-08-02T07:40:14.026Z,42.10
2022-08-02T07:41:16.997Z,41.81
2022-08-02T07:42:18.658Z,42.29
2022-08-02T07:43:22.953Z,42.07
2022-08-02T07:44:24.603Z,41.05
2022-08-02T07:45:28.669Z,40.96
2022-08-02T07:46:30.316Z,41.70
2022-08-02T07:47:31.884Z,42.50
2022-08-02T07:48:33.554Z,43.98
2022-08-02T07:49:35.192Z,44.62
2022-08-02T07:50:36.926Z,44.31
2022-08-02T07:51:38.587Z,42.62
2022-08-02T07:52:40.760Z,43.81
2022-08-02T07:53:51.200Z,43.43
2022-08-02T07:55:05.022Z,40.92
2022-08-02T07:56:06.665Z,40.00
2022-08-02T07:57:08.301Z,40.50
2022-08-02T07:58:12.973Z,38.92
2022-08-02T07:59:15.388Z,37.28
2022-08-02T08:00:17.664Z,39.01
2022-08-02T08:01:19.605Z,37.62
2022-08-02T08:02:21.277Z,38.45
2022-08-02T08:03:23.016Z,40.73
2022-08-02T08:04:24.978Z,39.42
2022-08-02T08:05:26.651Z,39.69
2022-08-02T08:06:29.218Z,39.08
2022-08-02T08:07:31.119Z,40.54
2022-08-02T08:08:35.037Z,40.37
2022-08-02T08:09:42.520Z,38.95
2022-08-02T08:10:44.158Z,37.70
2022-08-02T08:11:45.917Z,38.38
2022-08-02T08:12:47.470Z,37.21
2022-08-02T08:13:49.075Z,38.07
2022-08-02T08:14:50.781Z,37.99
2022-08-02T08:15:52.785Z,36.07
2022-08-02T08:16:54.414Z,34.93
2022-08-02T08:17:56.095Z,33.88
2022-08-02T08:18:57.681Z,34.17
2022-08-02T08:19:59.306Z,35.75
2022-08-02T08:21:00.951Z,35.69
2022-08-02T08:22:06.061Z,35.46
2022-08-02T08:23:07.641Z,39.93
2022-08-02T08:24:09.278Z,39.78
2022-08-02T08:25:10.914Z,39.46
2022-08-02T08:26:15.795Z,38.48
2022-08-02T08:27:18.588Z,37.34
2022-08-02T08:28:20.273Z,35.91
2022-08-02T08:29:22.482Z,37.05
2022-08-02T08:30:24.416Z,37.51
2022-08-02T08:31:26.167Z,36.79
2022-08-02T08:32:28.833Z,35.97
2022-08-02T08:33:30.457Z,35.78
2022-08-02T08:34:32.566Z,36.11
2022-08-02T08:35:34.747Z,36.88
2022-08-02T08:36:36.486Z,36.52
2022-08-02T08:37:39.218Z,36.03
2022-08-02T08:38:40.739Z,35.46
2022-08-02T08:39:56.312Z,37.80
2022-08-02T08:40:59.375Z,36.67
2022-08-02T08:42:01.314Z,35.92
2022-08-02T08:43:03.930Z,35.69
2022-08-02T08:44:05.609Z,35.34
2022-08-02T08:45:09.032Z,35.83
2022-08-02T08:46:12.381Z,36.72
2022-08-02T08:47:14.012Z,36.92
2022-08-02T08:48:30.264Z,37.67
2022-08-02T08:49:40.143Z,37.81
2022-08-02T08:51:04.504Z,35.74
2022-08-02T08:52:06.604Z,34.03
2022-08-02T08:53:12.352Z,34.73
2022-08-02T08:54:17.271Z,34.42
2022-08-02T08:55:24.738Z,34.48
2022-08-02T08:56:32.051Z,35.08
2022-08-02T08:57:37.144Z,35.05
2022-08-02T08:58:39.704Z,34.53
2022-08-02T08:59:41.301Z,33.63
2022-08-02T09:00:43.156Z,34.15
2022-08-02T09:01:49.971Z,36.02
2022-08-02T09:02:52.506Z,35.25
2022-08-02T09:03:54.143Z,34.84
2022-08-02T09:04:56.474Z,34.02
2022-08-02T09:05:58.935Z,34.60
2022-08-02T09:07:00.487Z,34.92
2022-08-02T09:08:02.082Z,35.31
2022-08-02T09:09:03.716Z,33.87
2022-08-02T09:10:40.672Z,33.52
2022-08-02T09:11:42.267Z,32.51
2022-08-02T09:12:43.833Z,32.43
2022-08-02T09:13:55.002Z,32.76
2022-08-02T09:14:56.617Z,32.47
2022-08-02T09:16:11.498Z,35.18
2022-08-02T09:17:15.162Z,35.37
2022-08-02T09:18:16.716Z,35.19
2022-08-02T09:19:25.452Z,35.00
2022-08-02T09:20:30.648Z,34.57
2022-08-02T09:21:37.949Z,32.67
2022-08-02T09:22:39.526Z,32.28
2022-08-02T09:23:43.272Z,31.77
2022-08-02T09:24:50.005Z,32.53
2022-08-02T09:26:07.495Z,34.08
2022-08-02T09:27:21.365Z,31.82
2022-08-02T09:28:27.609Z,33.13
2022-08-02T09:29:29.220Z,32.44
2022-08-02T09:30:31.658Z,32.95
2022-08-02T09:31:34.380Z,33.23
2022-08-02T09:32:46.474Z,33.31
2022-08-02T09:33:56.447Z,32.47
2022-08-02T09:34:58.033Z,32.59
2022-08-02T09:36:08.118Z,32.36
2022-08-02T09:37:23.243Z,32.94
2022-08-02T09:38:26.344Z,33.49
2022-08-02T09:39:47.480Z,33.12
2022-08-02T09:40:49.645Z,32.61
2022-08-02T09:41:51.337Z,33.14
2022-08-02T09:42:59.385Z,32.15
2022-08-02T09:44:06.162Z,32.15
2022-08-02T09:45:10.245Z,32.10
2022-08-02T09:46:16.277Z,32.13
2022-08-02T09:47:18.095Z,33.22
2022-08-02T09:48:19.683Z,36.17
2022-08-02T09:49:21.824Z,35.31
2022-08-02T09:50:23.470Z,36.47
2022-08-02T09:51:57.755Z,36.53
2022-08-02T09:52:59.558Z,34.18
2022-08-02T09:54:08.926Z,34.00
2022-08-02T09:55:11.883Z,33.30
2022-08-02T09:56:35.338Z,32.82
2022-08-02T09:57:38.537Z,32.36
2022-08-02T09:58:40.409Z,32.51
2022-08-02T09:59:52.514Z,32.98
2022-08-02T10:01:01.561Z,33.08
2022-08-02T10:02:17.027Z,32.48
2022-08-02T10:03:22.625Z,33.17
2022-08-02T10:04:28.524Z,32.36
2022-08-02T10:05:32.178Z,33.28
2022-08-02T10:06:46.370Z,32.57
2022-08-02T10:07:48.066Z,31.62
2022-08-02T10:08:50.612Z,32.49
2022-08-02T10:09:52.292Z,32.02
2022-08-02T10:11:00.527Z,30.34
2022-08-02T10:12:03.469Z,31.49
2022-08-02T10:13:10.734Z,32.60
2022-08-02T10:14:12.819Z,32.67
2022-08-02T10:15:16.344Z,30.20
2022-08-02T10:16:21.901Z,30.67
2022-08-02T10:17:25.270Z,30.62
2022-08-02T10:18:38.709Z,30.97
2022-08-02T10:20:02.754Z,30.87
2022-08-02T10:21:06.530Z,30.26
2022-08-02T10:22:14.662Z,30.13
2022-08-02T10:23:17.351Z,30.51
2022-08-02T10:24:22.527Z,31.31
2022-08-02T10:25:24.665Z,31.86
2022-08-02T10:26:26.525Z,30.18
2022-08-02T10:27:43.207Z,30.70
2022-08-02T10:28:53.966Z,30.09
2022-08-02T10:29:57.821Z,33.27
2022-08-02T10:31:05.588Z,34.76
2022-08-02T10:32:15.465Z,36.70
2022-08-02T10:33:19.280Z,38.07
2022-08-02T10:34:24.832Z,37.75
2022-08-02T10:35:37.550Z,35.72
2022-08-02T10:36:42.141Z,33.34
2022-08-02T10:37:46.086Z,32.97
2022-08-02T10:38:47.904Z,32.66
2022-08-02T10:39:55.997Z,32.46
2022-08-02T10:40:57.575Z,32.67
2022-08-02T10:41:59.180Z,31.94
2022-08-02T10:43:01.410Z,31.62
2022-08-02T10:44:03.355Z,31.58
2022-08-02T10:45:14.985Z,31.97
2022-08-02T10:46:35.798Z,31.02
2022-08-02T10:47:37.566Z,30.58
2022-08-02T10:49:18.467Z,30.60
2022-08-02T10:50:53.006Z,31.78
2022-08-02T10:51:54.540Z,31.91
2022-08-02T10:53:32.480Z,31.95
2022-08-02T10:54:42.694Z,33.22
2022-08-02T10:55:45.998Z,32.91
2022-08-02T10:56:50.198Z,32.17
2022-08-02T10:58:19.278Z,31.24
2022-08-02T10:59:24.185Z,30.36
2022-08-02T11:00:27.476Z,30.65
2022-08-02T11:01:38.953Z,30.70
2022-08-02T11:02:43.990Z,28.76
2022-08-02T11:03:45.557Z,28.79
2022-08-02T11:04:47.064Z,30.81
2022-08-02T11:06:05.410Z,30.84
2022-08-02T11:07:20.049Z,30.27
2022-08-02T11:08:23.026Z,29.85
2022-08-02T11:09:32.718Z,29.93
2022-08-02T11:10:39.936Z,29.71
2022-08-02T11:12:09.553Z,28.97
2022-08-02T11:13:16.765Z,29.06
2022-08-02T11:14:18.654Z,27.96
2022-08-02T11:15:20.372Z,27.45
2022-08-02T11:16:21.931Z,27.33
2022-08-02T11:17:23.756Z,27.90
2022-08-02T11:18:51.460Z,27.19
2022-08-02T11:20:11.482Z,28.28
2022-08-02T11:21:23.709Z,28.57
2022-08-02T11:22:25.842Z,28.09
2022-08-02T11:23:44.170Z,28.92
2022-08-02T11:24:47.479Z,28.26
2022-08-02T11:26:10.851Z,26.59
2022-08-02T11:27:21.965Z,26.87
2022-08-02T11:28:25.631Z,27.62
2022-08-02T11:29:40.107Z,29.00
2022-08-02T11:30:42.072Z,29.35
2022-08-02T11:31:45.555Z,26.97
2022-08-02T11:32:48.245Z,26.41
2022-08-02T11:33:50.999Z,25.73
2022-08-02T11:34:54.163Z,25.89
2022-08-02T11:36:01.844Z,28.11
2022-08-02T11:37:03.582Z,25.91
2022-08-02T11:38:21.205Z,27.81
2022-08-02T11:39:23.572Z,28.50
2022-08-02T11:40:37.568Z,29.25
2022-08-02T11:41:46.901Z,30.15
2022-08-02T11:42:53.634Z,29.66
2022-08-02T11:43:56.034Z,29.61
2022-08-02T11:44:57.664Z,28.52
2022-08-02T11:46:12.256Z,28.18
2022-08-02T11:47:14.178Z,27.05
2022-08-02T11:48:30.102Z,26.37
2022-08-02T11:49:31.918Z,25.90
2022-08-02T11:50:33.609Z,26.32
2022-08-02T11:51:35.159Z,26.50
2022-08-02T11:52:38.535Z,25.70
2022-08-02T11:53:53.477Z,25.79
2022-08-02T11:54:55.043Z,27.27
2022-08-02T11:55:57.207Z,28.46
2022-08-02T11:57:20.593Z,28.05
2022-08-02T11:58:22.699Z,26.83
2022-08-02T11:59:24.251Z,26.52
2022-08-02T12:00:30.533Z,26.29
2022-08-02T12:01:33.687Z,26.49
2022-08-02T12:02:48.648Z,26.63
2022-08-02T12:03:50.595Z,26.82
2022-08-02T12:05:00.726Z,27.08
2022-08-02T12:06:06.801Z,26.00
2022-08-02T12:07:12.708Z,27.17
2022-08-02T12:08:17.060Z,28.53
2022-08-02T12:09:20.818Z,28.10
2022-08-02T12:10:24.277Z,28.32
2022-08-02T12:11:25.915Z,27.57
2022-08-02T12:12:58.934Z,28.01
2022-08-02T12:14:00.998Z,26.93
2022-08-02T12:15:02.743Z,27.17
2022-08-02T12:16:30.764Z,26.84
2022-08-02T12:17:51.077Z,26.13
2022-08-02T12:19:11.696Z,26.12
2022-08-02T12:20:17.388Z,25.66
2022-08-02T12:21:25.008Z,26.58
2022-08-02T12:22:27.906Z,27.04
2022-08-02T12:23:30.222Z,26.84
2022-08-02T12:24:31.836Z,26.72
2022-08-02T12:25:35.537Z,26.79
2022-08-02T12:26:45.268Z,27.68
2022-08-02T12:27:46.956Z,28.96
2022-08-02T12:28:59.731Z,27.72
2022-08-02T12:30:13.247Z,27.51
2022-08-02T12:31:14.849Z,27.15
2022-08-02T12:32:24.615Z,26.42
2022-08-02T12:33:29.179Z,26.10
2022-08-02T12:34:32.770Z,26.57
2022-08-02T12:35:34.450Z,27.03
2022-08-02T12:36:36.115Z,25.78
2022-08-02T12:37:49.796Z,25.80
2022-08-02T12:38:58.380Z,26.55
2022-08-02T12:40:25.915Z,24.34
2022-08-02T12:41:31.129Z,25.79
2022-08-02T12:43:06.160Z,24.68
2022-08-02T12:44:16.258Z,25.84
2022-08-02T12:45:21.725Z,25.78
2022-08-02T12:46:24.706Z,26.73
2022-08-02T12:47:31.277Z,27.19
2022-08-02T12:48:56.619Z,26.86
2022-08-02T12:50:20.520Z,28.75
2022-08-02T12:51:56.714Z,28.19
2022-08-02T12:53:05.339Z,27.80
2022-08-02T12:54:38.815Z,29.55
2022-08-02T12:55:59.246Z,31.46
2022-08-02T12:57:15.513Z,29.49
2022-08-02T12:58:17.747Z,28.63
2022-08-02T12:59:39.079Z,27.88
2022-08-02T13:00:41.215Z,26.50
2022-08-02T13:01:43.538Z,26.83
2022-08-02T13:02:45.178Z,26.27
2022-08-02T13:04:09.316Z,26.67
2022-08-02T13:05:11.322Z,25.62
2022-08-02T13:06:41.864Z,25.37
2022-08-02T13:07:34.569Z,25.43
2022-08-02T13:08:38.972Z,25.33
2022-08-02T13:09:44.935Z,25.38
2022-08-02T13:10:46.564Z,24.55
2022-08-02T13:11:48.765Z,25.34
2022-08-02T13:12:51.523Z,25.53
2022-08-02T13:13:53.331Z,25.67
2022-08-02T13:14:54.934Z,26.83
2022-08-02T13:15:56.496Z,28.49
2022-08-02T13:17:00.967Z,27.54
2022-08-02T13:18:02.742Z,28.33
2022-08-02T13:19:04.640Z,28.39
2022-08-02T13:20:07.705Z,29.24
2022-08-02T13:21:23.518Z,29.84
2022-08-02T13:22:34.771Z,30.61
2022-08-02T13:23:54.859Z,30.04
2022-08-02T13:24:57.179Z,29.88
2022-08-02T13:25:58.934Z,29.80
2022-08-02T13:27:08.323Z,29.93
2022-08-02T13:28:11.221Z,28.62
2022-08-02T13:29:12.874Z,28.01
2022-08-02T13:30:14.641Z,27.64
2022-08-02T13:31:36.170Z,27.71
2022-08-02T13:32:37.890Z,28.38
2022-08-02T13:33:39.495Z,28.75
2022-08-02T13:34:41.162Z,27.37
2022-08-02T13:35:44.315Z,27.72
2022-08-02T13:36:45.877Z,26.74
2022-08-02T13:37:48.091Z,28.25
2022-08-02T13:38:49.713Z,26.67
2022-08-02T13:40:18.665Z,27.31
2022-08-02T13:41:22.699Z,27.60
2022-08-02T13:42:24.483Z,26.67
2022-08-02T13:43:26.867Z,27.41
2022-08-02T13:44:48.887Z,26.70
2022-08-02T13:45:50.803Z,25.98
2022-08-02T13:46:52.425Z,25.13
2022-08-02T13:48:03.811Z,25.95
2022-08-02T13:49:07.315Z,27.08
2022-08-02T13:50:09.229Z,26.48
2022-08-02T13:51:14.948Z,26.55
2022-08-02T13:52:17.091Z,26.52
2022-08-02T13:53:19.005Z,26.92
2022-08-02T13:54:20.638Z,26.22
2022-08-02T13:55:22.215Z,26.43
2022-08-02T13:56:35.218Z,27.04
2022-08-02T13:57:37.639Z,25.90
2022-08-02T13:58:39.212Z,25.98
2022-08-02T13:59:57.262Z,26.86
2022-08-02T14:01:00.707Z,27.61
2022-08-02T14:02:02.755Z,26.58
2022-08-02T14:03:06.222Z,26.29
2022-08-02T14:04:09.594Z,26.40
2022-08-02T14:05:11.310Z,25.28
2022-08-02T14:06:12.977Z,25.92
2022-08-02T14:07:15.988Z,25.69
2022-08-02T14:08:19.135Z,24.86
2022-08-02T14:09:20.862Z,25.26
2022-08-02T14:10:22.763Z,25.17
2022-08-02T14:11:24.298Z,24.36